sensor_id;sensor_type;location;lat;lon;timestamp;pressure;altitude;pressure_sealevel;temperature;humidity
76124;BME280;65173;48.066;20.976;2024-03-06T00:02:57;69453.84;;;-144.41;100.00
76124;BME280;65173;48.066;20.976;2024-03-06T00:06:00;69453.84;;;-144.41;100.00
76124;BME280;65173;48.066;20.976;2024-03-06T00:09:02;69453.84;;;-144.41;100.00
76124;BME280;65173;48.066;20.976;2024-03-06T00:12:05;69453.84;;;-144.41;100.00
76124;BME280;65173;48.066;20.976;2024-03-06T00:15:08;69453.84;;;-144.41;100.00
76124;BME280;65173;48.066;20.976;2024-03-06T00:18:11;69453.84;;;-144.41;100.00
76124;BME280;65173;48.066;20.976;2024-03-06T00:21:13;69453.84;;;-144.41;100.00
76124;BME280;65173;48.066;20.976;2024-03-06T00:24:16;69453.84;;;-144.41;100.00
76124;BME280;65173;48.066;20.976;2024-03-06T00:27:19;69453.84;;;-144.41;100.00
76124;BME280;65173;48.066;20.976;2024-03-06T00:30:21;69453.84;;;-144.41;100.00
76124;BME280;65173;48.066;20.976;2024-03-06T00:33:24;69453.84;;;-144.41;100.00
76124;BME280;65173;48.066;20.976;2024-03-06T00:36:26;69453.84;;;-144.41;100.00
76124;BME280;65173;48.066;20.976;2024-03-06T00:39:29;69453.84;;;-144.41;100.00
76124;BME280;65173;48.066;20.976;2024-03-06T00:42:32;69453.84;;;-144.41;100.00
76124;BME280;65173;48.066;20.976;2024-03-06T00:45:35;69453.84;;;-144.41;100.00
76124;BME280;65173;48.066;20.976;2024-03-06T00:48:38;69453.84;;;-144.41;100.00
76124;BME280;65173;48.066;20.976;2024-03-06T00:51:43;69453.84;;;-144.41;100.00
76124;BME280;65173;48.066;20.976;2024-03-06T00:54:51;69453.84;;;-144.41;100.00
76124;BME280;65173;48.066;20.976;2024-03-06T00:57:53;69453.84;;;-144.41;100.00
76124;BME280;65173;48.066;20.976;2024-03-06T01:00:56;69453.84;;;-144.41;100.00
76124;BME280;65173;48.066;20.976;2024-03-06T01:03:59;69453.84;;;-144.41;100.00
76124;BME280;65173;48.066;20.976;2024-03-06T01:07:02;69453.84;;;-144.41;100.00
76124;BME280;65173;48.066;20.976;2024-03-06T01:10:06;69453.84;;;-144.41;100.00
76124;BME280;65173;48.066;20.976;2024-03-06T01:13:08;69453.84;;;-144.41;100.00
76124;BME280;65173;48.066;20.976;2024-03-06T01:16:13;69453.84;;;-144.41;100.00
76124;BME280;65173;48.066;20.976;2024-03-06T01:19:15;69453.84;;;-144.41;100.00
76124;BME280;65173;48.066;20.976;2024-03-06T01:22:18;69453.84;;;-144.41;100.00
76124;BME280;65173;48.066;20.976;2024-03-06T01:25:20;69453.84;;;-144.41;100.00
76124;BME280;65173;48.066;20.976;2024-03-06T01:28:23;69453.84;;;-144.41;100.00
76124;BME280;65173;48.066;20.976;2024-03-06T01:31:25;69453.84;;;-144.41;100.00
76124;BME280;65173;48.066;20.976;2024-03-06T01:34:28;69453.84;;;-144.41;100.00
76124;BME280;65173;48.066;20.976;2024-03-06T01:37:31;69453.84;;;-144.41;100.00
76124;BME280;65173;48.066;20.976;2024-03-06T01:40:33;69453.84;;;-144.41;100.00
76124;BME280;65173;48.066;20.976;2024-03-06T03:56:22;69453.84;;;-144.41;100.00
76124;BME280;65173;48.066;20.976;2024-03-06T03:59:25;69453.84;;;-144.41;100.00
76124;BME280;65173;48.066;20.976;2024-03-06T04:02:28;69453.84;;;-144.41;100.00
76124;BME280;65173;48.066;20.976;2024-03-06T04:05:30;69453.84;;;-144.41;100.00
76124;BME280;65173;48.066;20.976;2024-03-06T04:08:36;69453.84;;;-144.41;100.00
76124;BME280;65173;48.066;20.976;2024-03-06T04:11:40;69453.84;;;-144.41;100.00
76124;BME280;65173;48.066;20.976;2024-03-06T04:14:42;69453.84;;;-144.41;100.00
76124;BME280;65173;48.066;20.976;2024-03-06T04:17:45;69453.84;;;-144.41;100.00
76124;BME280;65173;48.066;20.976;2024-03-06T04:20:48;69453.84;;;-144.41;100.00
76124;BME280;65173;48.066;20.976;2024-03-06T04:23:50;69453.84;;;-144.41;100.00
76124;BME280;65173;48.066;20.976;2024-03-06T04:26:52;69453.84;;;-144.41;100.00
76124;BME280;65173;48.066;20.976;2024-03-06T04:29:55;69453.84;;;-144.41;100.00
76124;BME280;65173;48.066;20.976;2024-03-06T04:32:57;69453.84;;;-144.41;100.00
76124;BME280;65173;48.066;20.976;2024-03-06T04:36:02;69453.84;;;-144.41;100.00
76124;BME280;65173;48.066;20.976;2024-03-06T04:39:05;69453.84;;;-144.41;100.00
76124;BME280;65173;48.066;20.976;2024-03-06T04:42:10;69453.84;;;-144.41;100.00
76124;BME280;65173;48.066;20.976;2024-03-06T04:45:15;69453.84;;;-144.41;100.00
76124;BME280;65173;48.066;20.976;2024-03-06T04:48:18;69453.84;;;-144.41;100.00
76124;BME280;65173;48.066;20.976;2024-03-06T04:51:20;69453.84;;;-144.41;100.00
76124;BME280;65173;48.066;20.976;2024-03-06T04:54:23;69453.84;;;-144.41;100.00
76124;BME280;65173;48.066;20.976;2024-03-06T04:57:25;69453.84;;;-144.41;100.00
76124;BME280;65173;48.066;20.976;2024-03-06T05:00:29;69453.84;;;-144.41;100.00
76124;BME280;65173;48.066;20.976;2024-03-06T05:03:32;69453.84;;;-144.41;100.00
76124;BME280;65173;48.066;20.976;2024-03-06T05:06:52;69453.84;;;-144.41;100.00
76124;BME280;65173;48.066;20.976;2024-03-06T05:10:12;69453.84;;;-144.41;100.00
76124;BME280;65173;48.066;20.976;2024-03-06T05:13:32;69453.84;;;-144.41;100.00
76124;BME280;65173;48.066;20.976;2024-03-06T05:16:52;69453.84;;;-144.41;100.00
76124;BME280;65173;48.066;20.976;2024-03-06T05:20:12;69453.84;;;-144.41;100.00
76124;BME280;65173;48.066;20.976;2024-03-06T05:23:32;69453.84;;;-144.41;100.00
76124;BME280;65173;48.066;20.976;2024-03-06T05:26:52;69453.84;;;-144.41;100.00
76124;BME280;65173;48.066;20.976;2024-03-06T05:30:12;69453.84;;;-144.41;100.00
76124;BME280;65173;48.066;20.976;2024-03-06T05:33:32;69453.84;;;-144.41;100.00
76124;BME280;65173;48.066;20.976;2024-03-06T05:36:52;69453.84;;;-144.41;100.00
76124;BME280;65173;48.066;20.976;2024-03-06T05:40:13;69453.84;;;-144.41;100.00
76124;BME280;65173;48.066;20.976;2024-03-06T05:43:33;69453.84;;;-144.41;100.00
76124;BME280;65173;48.066;20.976;2024-03-06T05:46:53;69453.84;;;-144.41;100.00
76124;BME280;65173;48.066;20.976;2024-03-06T05:50:13;69453.84;;;-144.41;100.00
76124;BME280;65173;48.066;20.976;2024-03-06T05:53:37;69453.84;;;-144.41;100.00
76124;BME280;65173;48.066;20.976;2024-03-06T05:56:57;69453.84;;;-144.41;100.00
76124;BME280;65173;48.066;20.976;2024-03-06T06:00:17;69453.84;;;-144.41;100.00
76124;BME280;65173;48.066;20.976;2024-03-06T06:03:20;69453.84;;;-144.41;100.00
76124;BME280;65173;48.066;20.976;2024-03-06T06:06:23;69453.84;;;-144.41;100.00
76124;BME280;65173;48.066;20.976;2024-03-06T06:09:26;69453.84;;;-144.41;100.00
76124;BME280;65173;48.066;20.976;2024-03-06T06:12:29;69453.84;;;-144.41;100.00
76124;BME280;65173;48.066;20.976;2024-03-06T06:15:31;69453.84;;;-144.41;100.00
76124;BME280;65173;48.066;20.976;2024-03-06T06:18:36;69453.84;;;-144.41;100.00
76124;BME280;65173;48.066;20.976;2024-03-06T06:21:39;69453.84;;;-144.41;100.00
76124;BME280;65173;48.066;20.976;2024-03-06T06:24:41;69453.84;;;-144.41;100.00
76124;BME280;65173;48.066;20.976;2024-03-06T06:27:48;69453.84;;;-144.41;100.00
76124;BME280;65173;48.066;20.976;2024-03-06T06:30:52;69453.84;;;-144.41;100.00
76124;BME280;65173;48.066;20.976;2024-03-06T06:33:54;69453.84;;;-144.41;100.00
76124;BME280;65173;48.066;20.976;2024-03-06T06:36:57;69453.84;;;-144.41;100.00
76124;BME280;65173;48.066;20.976;2024-03-06T06:40:00;69453.84;;;-144.41;100.00
76124;BME280;65173;48.066;20.976;2024-03-06T06:43:03;69453.84;;;-144.41;100.00
76124;BME280;65173;48.066;20.976;2024-03-06T06:46:08;69453.84;;;-144.41;100.00
76124;BME280;65173;48.066;20.976;2024-03-06T06:49:11;69453.84;;;-144.41;100.00
76124;BME280;65173;48.066;20.976;2024-03-06T06:52:14;69453.84;;;-144.41;100.00
76124;BME280;65173;48.066;20.976;2024-03-06T06:55:17;69453.84;;;-144.41;100.00
76124;BME280;65173;48.066;20.976;2024-03-06T06:58:19;69453.84;;;-144.41;100.00
76124;BME280;65173;48.066;20.976;2024-03-06T07:01:22;69453.84;;;-144.41;100.00
76124;BME280;65173;48.066;20.976;2024-03-06T07:04:26;69453.84;;;-144.41;100.00
76124;BME280;65173;48.066;20.976;2024-03-06T07:07:28;69453.84;;;-144.41;100.00
76124;BME280;65173;48.066;20.976;2024-03-06T07:10:33;69453.84;;;-144.41;100.00
76124;BME280;65173;48.066;20.976;2024-03-06T07:13:37;69453.84;;;-144.41;100.00
76124;BME280;65173;48.066;20.976;2024-03-06T07:16:44;69453.84;;;-144.41;100.00
76124;BME280;65173;48.066;20.976;2024-03-06T07:19:47;69453.84;;;-144.41;100.00
76124;BME280;65173;48.066;20.976;2024-03-06T07:22:49;69453.84;;;-144.41;100.00
76124;BME280;65173;48.066;20.976;2024-03-06T07:25:53;69453.84;;;-144.41;100.00
76124;BME280;65173;48.066;20.976;2024-03-06T07:28:56;69453.84;;;-144.41;100.00
76124;BME280;65173;48.066;20.976;2024-03-06T07:32:00;69453.84;;;-144.41;100.00
76124;BME280;65173;48.066;20.976;2024-03-06T07:35:03;69453.84;;;-144.41;100.00
76124;BME280;65173;48.066;20.976;2024-03-06T07:38:05;69453.84;;;-144.41;100.00
76124;BME280;65173;48.066;20.976;2024-03-06T07:41:08;69453.84;;;-144.41;100.00
76124;BME280;65173;48.066;20.976;2024-03-06T07:44:11;69453.84;;;-144.41;100.00
76124;BME280;65173;48.066;20.976;2024-03-06T07:47:13;69453.84;;;-144.41;100.00
76124;BME280;65173;48.066;20.976;2024-03-06T07:50:17;69453.84;;;-144.41;100.00
76124;BME280;65173;48.066;20.976;2024-03-06T07:53:23;69453.84;;;-144.41;100.00
76124;BME280;65173;48.066;20.976;2024-03-06T07:56:26;69453.84;;;-144.41;100.00
76124;BME280;65173;48.066;20.976;2024-03-06T07:59:29;69453.84;;;-144.41;100.00
76124;BME280;65173;48.066;20.976;2024-03-06T08:02:32;69453.84;;;-144.41;100.00
76124;BME280;65173;48.066;20.976;2024-03-06T08:05:34;69453.84;;;-144.41;100.00
76124;BME280;65173;48.066;20.976;2024-03-06T08:08:42;69453.84;;;-144.41;100.00
76124;BME280;65173;48.066;20.976;2024-03-06T08:11:47;69453.84;;;-144.41;100.00
76124;BME280;65173;48.066;20.976;2024-03-06T08:14:49;69453.84;;;-144.41;100.00
76124;BME280;65173;48.066;20.976;2024-03-06T08:17:52;69453.84;;;-144.41;100.00
76124;BME280;65173;48.066;20.976;2024-03-06T08:20:55;69453.84;;;-144.41;100.00
76124;BME280;65173;48.066;20.976;2024-03-06T08:24:00;69453.84;;;-144.41;100.00
76124;BME280;65173;48.066;20.976;2024-03-06T08:27:03;69453.84;;;-144.41;100.00
76124;BME280;65173;48.066;20.976;2024-03-06T08:30:06;69453.84;;;-144.41;100.00
76124;BME280;65173;48.066;20.976;2024-03-06T08:33:10;69453.84;;;-144.41;100.00
76124;BME280;65173;48.066;20.976;2024-03-06T08:36:13;69453.84;;;-144.41;100.00
76124;BME280;65173;48.066;20.976;2024-03-06T08:39:16;69453.84;;;-144.41;100.00
76124;BME280;65173;48.066;20.976;2024-03-06T08:42:18;69453.84;;;-144.41;100.00
76124;BME280;65173;48.066;20.976;2024-03-06T08:45:21;69453.84;;;-144.41;100.00
76124;BME280;65173;48.066;20.976;2024-03-06T08:48:25;69453.84;;;-144.41;100.00
76124;BME280;65173;48.066;20.976;2024-03-06T08:51:28;69453.84;;;-144.41;100.00
76124;BME280;65173;48.066;20.976;2024-03-06T08:54:30;69453.84;;;-144.41;100.00
76124;BME280;65173;48.066;20.976;2024-03-06T08:57:34;69453.84;;;-144.41;100.00
76124;BME280;65173;48.066;20.976;2024-03-06T09:00:37;69453.84;;;-144.41;100.00
76124;BME280;65173;48.066;20.976;2024-03-06T09:03:39;69453.84;;;-144.41;100.00
76124;BME280;65173;48.066;20.976;2024-03-06T09:06:42;69453.84;;;-144.41;100.00
76124;BME280;65173;48.066;20.976;2024-03-06T09:09:45;69453.84;;;-144.41;100.00
76124;BME280;65173;48.066;20.976;2024-03-06T09:12:48;69453.84;;;-144.41;100.00
76124;BME280;65173;48.066;20.976;2024-03-06T09:15:51;69453.84;;;-144.41;100.00
76124;BME280;65173;48.066;20.976;2024-03-06T09:18:53;69453.84;;;-144.41;100.00
76124;BME280;65173;48.066;20.976;2024-03-06T09:21:56;69453.84;;;-144.41;100.00
76124;BME280;65173;48.066;20.976;2024-03-06T09:24:59;69453.84;;;-144.41;100.00
76124;BME280;65173;48.066;20.976;2024-03-06T09:28:01;69453.84;;;-144.41;100.00
76124;BME280;65173;48.066;20.976;2024-03-06T09:31:07;69453.84;;;-144.41;100.00
76124;BME280;65173;48.066;20.976;2024-03-06T09:34:11;69453.84;;;-144.41;100.00
76124;BME280;65173;48.066;20.976;2024-03-06T09:37:16;69453.84;;;-144.41;100.00
76124;BME280;65173;48.066;20.976;2024-03-06T09:40:22;69453.84;;;-144.41;100.00
76124;BME280;65173;48.066;20.976;2024-03-06T09:43:33;100397.53;;;16.60;48.44
76124;BME280;65173;48.066;20.976;2024-03-06T09:46:36;100410.94;;;16.41;49.26
76124;BME280;65173;48.066;20.976;2024-03-06T09:49:39;100400.34;;;16.63;48.30
76124;BME280;65173;48.066;20.976;2024-03-06T09:52:43;100401.22;;;16.87;48.20
76124;BME280;65173;48.066;20.976;2024-03-06T09:55:50;100396.53;;;17.19;47.08
76124;BME280;65173;48.066;20.976;2024-03-06T09:58:53;100397.00;;;17.82;46.21
76124;BME280;65173;48.066;20.976;2024-03-06T10:01:58;100401.84;;;17.34;47.17
76124;BME280;65173;48.066;20.976;2024-03-06T10:05:05;100402.63;;;17.35;45.98
76124;BME280;65173;48.066;20.976;2024-03-06T10:08:08;100397.22;;;15.98;48.19
76124;BME280;65173;48.066;20.976;2024-03-06T10:11:11;100388.94;;;17.05;47.45
76124;BME280;65173;48.066;20.976;2024-03-06T10:14:15;100394.03;;;16.09;49.03
76124;BME280;65173;48.066;20.976;2024-03-06T10:17:21;100392.50;;;14.72;52.04
76124;BME280;65173;48.066;20.976;2024-03-06T10:20:35;100388.25;;;14.71;52.82
76124;BME280;65173;48.066;20.976;2024-03-06T10:23:37;100394.22;;;14.64;53.08
76124;BME280;65173;48.066;20.976;2024-03-06T10:26:40;100392.84;;;14.70;54.93
76124;BME280;65173;48.066;20.976;2024-03-06T10:29:43;100392.63;;;14.14;54.00
76124;BME280;65173;48.066;20.976;2024-03-06T10:32:45;100388.63;;;15.09;53.65
76124;BME280;65173;48.066;20.976;2024-03-06T10:35:49;100390.97;;;16.92;52.14
76124;BME280;65173;48.066;20.976;2024-03-06T10:38:53;100389.69;;;18.06;48.09
76124;BME280;65173;48.066;20.976;2024-03-06T10:41:57;100388.88;;;18.28;46.89
76124;BME280;65173;48.066;20.976;2024-03-06T10:45:01;100384.75;;;18.11;45.91
76124;BME280;65173;48.066;20.976;2024-03-06T10:48:04;100385.91;;;18.10;46.01
76124;BME280;65173;48.066;20.976;2024-03-06T10:51:10;100386.13;;;18.73;44.31
76124;BME280;65173;48.066;20.976;2024-03-06T10:54:15;100386.44;;;18.19;43.86
76124;BME280;65173;48.066;20.976;2024-03-06T10:57:19;100381.78;;;19.25;43.60
76124;BME280;65173;48.066;20.976;2024-03-06T11:00:23;100371.97;;;18.84;43.83
76124;BME280;65173;48.066;20.976;2024-03-06T11:03:27;100364.03;;;19.28;44.04
76124;BME280;65173;48.066;20.976;2024-03-06T11:06:30;100365.72;;;19.39;44.03
76124;BME280;65173;48.066;20.976;2024-03-06T11:09:36;100367.78;;;19.50;43.26
76124;BME280;65173;48.066;20.976;2024-03-06T11:12:39;100365.47;;;19.18;43.62
76124;BME280;65173;48.066;20.976;2024-03-06T11:15:41;100358.66;;;18.68;43.34
76124;BME280;65173;48.066;20.976;2024-03-06T11:18:45;100360.59;;;18.41;43.89
76124;BME280;65173;48.066;20.976;2024-03-06T11:21:47;100358.94;;;18.89;45.40
76124;BME280;65173;48.066;20.976;2024-03-06T11:24:51;100354.91;;;19.06;43.86
76124;BME280;65173;48.066;20.976;2024-03-06T11:28:07;100360.75;;;18.02;45.49
76124;BME280;65173;48.066;20.976;2024-03-06T11:31:13;100356.16;;;18.29;45.63
76124;BME280;65173;48.066;20.976;2024-03-06T11:34:22;100350.25;;;17.97;43.98
76124;BME280;65173;48.066;20.976;2024-03-06T11:37:24;100345.88;;;18.38;45.70
76124;BME280;65173;48.066;20.976;2024-03-06T11:40:29;100341.94;;;19.52;46.00
76124;BME280;65173;48.066;20.976;2024-03-06T11:43:32;100340.50;;;20.06;42.34
76124;BME280;65173;48.066;20.976;2024-03-06T11:46:48;100344.56;;;18.82;42.82
76124;BME280;65173;48.066;20.976;2024-03-06T11:49:53;100339.94;;;17.80;45.18
76124;BME280;65173;48.066;20.976;2024-03-06T11:52:56;100333.41;;;18.57;44.88
76124;BME280;65173;48.066;20.976;2024-03-06T11:56:05;100336.38;;;18.48;44.60
76124;BME280;65173;48.066;20.976;2024-03-06T11:59:10;100329.56;;;19.18;45.28
76124;BME280;65173;48.066;20.976;2024-03-06T12:02:12;100326.53;;;18.89;44.65
76124;BME280;65173;48.066;20.976;2024-03-06T12:05:15;100321.91;;;17.84;44.00
76124;BME280;65173;48.066;20.976;2024-03-06T12:08:19;100327.06;;;17.09;45.99
76124;BME280;65173;48.066;20.976;2024-03-06T12:11:21;100323.06;;;18.10;46.94
76124;BME280;65173;48.066;20.976;2024-03-06T12:14:24;100328.69;;;18.50;44.23
76124;BME280;65173;48.066;20.976;2024-03-06T12:17:27;100327.50;;;17.72;44.88
76124;BME280;65173;48.066;20.976;2024-03-06T12:20:29;100328.53;;;17.25;45.95
76124;BME280;65173;48.066;20.976;2024-03-06T12:23:32;100327.91;;;16.93;47.96
76124;BME280;65173;48.066;20.976;2024-03-06T12:26:36;100319.34;;;17.07;48.15
76124;BME280;65173;48.066;20.976;2024-03-06T12:29:39;100318.22;;;15.87;48.95
76124;BME280;65173;48.066;20.976;2024-03-06T12:32:56;100318.97;;;16.89;48.71
76124;BME280;65173;48.066;20.976;2024-03-06T12:39:03;100314.00;;;16.37;47.60
76124;BME280;65173;48.066;20.976;2024-03-06T12:42:06;100315.69;;;15.79;48.72
76124;BME280;65173;48.066;20.976;2024-03-06T12:45:09;100312.06;;;17.50;49.38
76124;BME280;65173;48.066;20.976;2024-03-06T12:48:12;100311.75;;;18.23;45.37
76124;BME280;65173;48.066;20.976;2024-03-06T12:51:15;100316.03;;;18.01;45.10
76124;BME280;65173;48.066;20.976;2024-03-06T12:54:19;100314.03;;;16.91;45.79
76124;BME280;65173;48.066;20.976;2024-03-06T12:57:21;100309.59;;;16.13;48.26
76124;BME280;65173;48.066;20.976;2024-03-06T13:00:24;100301.50;;;15.94;50.11
76124;BME280;65173;48.066;20.976;2024-03-06T13:03:27;100303.81;;;16.11;49.26
76124;BME280;65173;48.066;20.976;2024-03-06T13:06:30;100307.88;;;16.91;47.04
76124;BME280;65173;48.066;20.976;2024-03-06T13:09:33;100297.78;;;16.88;47.32
76124;BME280;65173;48.066;20.976;2024-03-06T13:12:37;100304.69;;;16.50;47.99
76124;BME280;65173;48.066;20.976;2024-03-06T13:15:40;100303.38;;;16.25;48.74
76124;BME280;65173;48.066;20.976;2024-03-06T13:18:42;100285.09;;;15.99;48.00
76124;BME280;65173;48.066;20.976;2024-03-06T13:21:44;100303.31;;;16.06;47.98
76124;BME280;65173;48.066;20.976;2024-03-06T13:24:47;100293.16;;;15.24;49.93
76124;BME280;65173;48.066;20.976;2024-03-06T13:27:52;100299.41;;;15.28;50.34
76124;BME280;65173;48.066;20.976;2024-03-06T13:30:56;100291.31;;;15.12;52.02
76124;BME280;65173;48.066;20.976;2024-03-06T13:34:02;100283.50;;;13.78;53.22
76124;BME280;65173;48.066;20.976;2024-03-06T13:37:06;100297.09;;;13.98;54.65
76124;BME280;65173;48.066;20.976;2024-03-06T13:40:13;100296.19;;;14.67;52.19
76124;BME280;65173;48.066;20.976;2024-03-06T13:43:16;100291.97;;;14.05;53.50
76124;BME280;65173;48.066;20.976;2024-03-06T13:46:18;100291.50;;;13.66;54.25
76124;BME280;65173;48.066;20.976;2024-03-06T13:49:41;100295.28;;;13.65;54.67
76124;BME280;65173;48.066;20.976;2024-03-06T13:52:44;100297.19;;;14.38;53.99
76124;BME280;65173;48.066;20.976;2024-03-06T13:55:46;100296.81;;;14.76;52.56
76124;BME280;65173;48.066;20.976;2024-03-06T13:58:49;100285.50;;;14.30;52.63
76124;BME280;65173;48.066;20.976;2024-03-06T14:01:52;100297.59;;;14.76;53.12
76124;BME280;65173;48.066;20.976;2024-03-06T14:04:55;100300.31;;;14.40;53.30
76124;BME280;65173;48.066;20.976;2024-03-06T14:07:58;100295.34;;;14.14;53.26
76124;BME280;65173;48.066;20.976;2024-03-06T14:11:01;100293.44;;;13.33;54.08
76124;BME280;65173;48.066;20.976;2024-03-06T14:14:10;100294.81;;;13.51;54.53
76124;BME280;65173;48.066;20.976;2024-03-06T14:17:13;100293.19;;;13.59;53.57
76124;BME280;65173;48.066;20.976;2024-03-06T14:20:16;100293.09;;;12.80;55.44
76124;BME280;65173;48.066;20.976;2024-03-06T14:23:20;100297.97;;;12.99;55.75
76124;BME280;65173;48.066;20.976;2024-03-06T14:26:23;100292.78;;;13.36;55.16
76124;BME280;65173;48.066;20.976;2024-03-06T14:29:26;100288.06;;;13.20;54.93
76124;BME280;65173;48.066;20.976;2024-03-06T14:32:31;100297.53;;;12.76;55.61
76124;BME280;65173;48.066;20.976;2024-03-06T14:35:34;100294.19;;;12.59;56.76
76124;BME280;65173;48.066;20.976;2024-03-06T14:38:37;100299.88;;;12.78;55.52
76124;BME280;65173;48.066;20.976;2024-03-06T14:41:40;100295.75;;;12.39;56.72
76124;BME280;65173;48.066;20.976;2024-03-06T14:44:45;100294.78;;;12.43;57.13
76124;BME280;65173;48.066;20.976;2024-03-06T14:47:48;100298.50;;;11.92;58.30
76124;BME280;65173;48.066;20.976;2024-03-06T14:50:51;100294.34;;;12.03;59.01
76124;BME280;65173;48.066;20.976;2024-03-06T14:53:54;100288.75;;;11.96;59.00
76124;BME280;65173;48.066;20.976;2024-03-06T14:56:57;100284.59;;;11.78;58.92
76124;BME280;65173;48.066;20.976;2024-03-06T15:00:00;100296.63;;;12.22;59.00
76124;BME280;65173;48.066;20.976;2024-03-06T15:03:03;100289.22;;;11.98;58.53
76124;BME280;65173;48.066;20.976;2024-03-06T15:06:06;100287.09;;;12.12;59.15
76124;BME280;65173;48.066;20.976;2024-03-06T15:09:13;100282.31;;;11.97;58.38
76124;BME280;65173;48.066;20.976;2024-03-06T15:12:18;100296.31;;;11.86;59.52
76124;BME280;65173;48.066;20.976;2024-03-06T15:15:20;100287.56;;;11.68;59.74
76124;BME280;65173;48.066;20.976;2024-03-06T15:18:23;100282.59;;;11.49;59.36
76124;BME280;65173;48.066;20.976;2024-03-06T15:21:26;100286.91;;;11.16;60.83
76124;BME280;65173;48.066;20.976;2024-03-06T15:24:29;100291.81;;;10.70;61.77
76124;BME280;65173;48.066;20.976;2024-03-06T15:27:32;100282.22;;;10.52;62.29
76124;BME280;65173;48.066;20.976;2024-03-06T15:30:35;100291.25;;;10.25;63.46
76124;BME280;65173;48.066;20.976;2024-03-06T15:33:39;100286.19;;;10.15;64.19
76124;BME280;65173;48.066;20.976;2024-03-06T15:36:41;100292.91;;;10.13;64.66
76124;BME280;65173;48.066;20.976;2024-03-06T15:39:44;100286.28;;;9.93;65.06
76124;BME280;65173;48.066;20.976;2024-03-06T15:42:47;100292.44;;;10.10;65.42
76124;BME280;65173;48.066;20.976;2024-03-06T15:45:49;100285.22;;;10.11;65.97
76124;BME280;65173;48.066;20.976;2024-03-06T15:48:52;100296.75;;;9.89;66.75
76124;BME280;65173;48.066;20.976;2024-03-06T15:51:55;100292.25;;;9.67;66.40
76124;BME280;65173;48.066;20.976;2024-03-06T15:54:57;100290.06;;;9.61;66.36
76124;BME280;65173;48.066;20.976;2024-03-06T15:58:00;100302.09;;;9.36;67.14
76124;BME280;65173;48.066;20.976;2024-03-06T16:01:04;100303.69;;;9.15;68.79
76124;BME280;65173;48.066;20.976;2024-03-06T16:04:07;100307.28;;;8.96;69.45
76124;BME280;65173;48.066;20.976;2024-03-06T16:07:11;100300.06;;;8.88;69.26
76124;BME280;65173;48.066;20.976;2024-03-06T16:10:15;100308.13;;;8.83;70.96
76124;BME280;65173;48.066;20.976;2024-03-06T16:13:18;100312.16;;;8.81;71.13
76124;BME280;65173;48.066;20.976;2024-03-06T16:16:20;100314.03;;;8.58;72.33
76124;BME280;65173;48.066;20.976;2024-03-06T16:19:23;100318.53;;;8.57;73.85
76124;BME280;65173;48.066;20.976;2024-03-06T16:22:36;100323.56;;;8.45;74.28
76124;BME280;65173;48.066;20.976;2024-03-06T16:25:39;100332.13;;;8.42;75.16
76124;BME280;65173;48.066;20.976;2024-03-06T16:28:41;100326.94;;;8.37;75.25
76124;BME280;65173;48.066;20.976;2024-03-06T16:31:44;100313.81;;;8.27;75.29
76124;BME280;65173;48.066;20.976;2024-03-06T16:34:47;100314.22;;;8.20;74.05
76124;BME280;65173;48.066;20.976;2024-03-06T16:37:49;100320.00;;;8.09;74.87
76124;BME280;65173;48.066;20.976;2024-03-06T16:40:53;100328.97;;;7.99;75.60
76124;BME280;65173;48.066;20.976;2024-03-06T16:43:55;100328.25;;;7.93;76.23
76124;BME280;65173;48.066;20.976;2024-03-06T16:46:58;100337.69;;;7.86;76.77
76124;BME280;65173;48.066;20.976;2024-03-06T16:50:01;100335.13;;;7.81;77.24
76124;BME280;65173;48.066;20.976;2024-03-06T16:53:04;100327.53;;;7.74;77.31
76124;BME280;65173;48.066;20.976;2024-03-06T16:56:09;100329.09;;;7.61;78.15
76124;BME280;65173;48.066;20.976;2024-03-06T16:59:12;100332.16;;;7.69;77.85
76124;BME280;65173;48.066;20.976;2024-03-06T17:02:14;100333.25;;;7.68;77.92
76124;BME280;65173;48.066;20.976;2024-03-06T17:05:17;100343.72;;;7.59;78.94
76124;BME280;65173;48.066;20.976;2024-03-06T17:08:20;100344.59;;;7.54;78.89
76124;BME280;65173;48.066;20.976;2024-03-06T17:11:23;100346.31;;;7.64;79.02
76124;BME280;65173;48.066;20.976;2024-03-06T17:14:26;100347.84;;;7.51;79.65
76124;BME280;65173;48.066;20.976;2024-03-06T17:17:30;100347.13;;;7.46;80.50
76124;BME280;65173;48.066;20.976;2024-03-06T17:20:33;100361.19;;;7.46;80.15
76124;BME280;65173;48.066;20.976;2024-03-06T17:23:35;100358.19;;;7.34;81.26
76124;BME280;65173;48.066;20.976;2024-03-06T17:26:38;100355.84;;;7.32;81.28
76124;BME280;65173;48.066;20.976;2024-03-06T17:29:42;100362.06;;;7.23;81.72
76124;BME280;65173;48.066;20.976;2024-03-06T17:32:45;100357.44;;;7.15;82.25
76124;BME280;65173;48.066;20.976;2024-03-06T17:35:48;100367.59;;;7.26;82.03
76124;BME280;65173;48.066;20.976;2024-03-06T17:38:51;100361.50;;;7.26;81.26
76124;BME280;65173;48.066;20.976;2024-03-06T17:41:54;100357.63;;;7.18;81.50
76124;BME280;65173;48.066;20.976;2024-03-06T17:44:57;100359.13;;;7.24;81.24
76124;BME280;65173;48.066;20.976;2024-03-06T17:47:59;100364.75;;;7.37;80.78
76124;BME280;65173;48.066;20.976;2024-03-06T17:51:02;100373.22;;;7.20;81.36
76124;BME280;65173;48.066;20.976;2024-03-06T17:54:05;100385.50;;;7.16;81.72
76124;BME280;65173;48.066;20.976;2024-03-06T17:57:12;100386.28;;;6.97;82.61
76124;BME280;65173;48.066;20.976;2024-03-06T18:00:16;100387.50;;;7.05;82.21